sensor_id;sensor_type;location;lat;lon;timestamp;temperature;humidity
12315;DHT22;23886;46.614;14.276;2023-04-25T00:02:13;7.30;99.90
12315;DHT22;23886;46.614;14.276;2023-04-25T00:04:41;7.20;99.90
12315;DHT22;23886;46.614;14.276;2023-04-25T00:07:09;7.20;99.90
12315;DHT22;23886;46.614;14.276;2023-04-25T00:09:36;7.10;99.90
12315;DHT22;23886;46.614;14.276;2023-04-25T00:12:03;7.00;99.90
12315;DHT22;23886;46.614;14.276;2023-04-25T00:14:30;6.90;99.90
12315;DHT22;23886;46.614;14.276;2023-04-25T00:16:59;6.90;99.90
12315;DHT22;23886;46.614;14.276;2023-04-25T00:19:26;7.10;99.90
12315;DHT22;23886;46.614;14.276;2023-04-25T00:21:55;7.00;99.90
12315;DHT22;23886;46.614;14.276;2023-04-25T00:24:22;7.10;99.90
12315;DHT22;23886;46.614;14.276;2023-04-25T00:26:49;7.00;99.90
12315;DHT22;23886;46.614;14.276;2023-04-25T00:29:16;7.00;99.90
12315;DHT22;23886;46.614;14.276;2023-04-25T00:31:43;7.10;99.90
12315;DHT22;23886;46.614;14.276;2023-04-25T00:34:10;7.10;99.90
12315;DHT22;23886;46.614;14.276;2023-04-25T00:36:37;7.00;99.90
12315;DHT22;23886;46.614;14.276;2023-04-25T00:39:06;7.10;99.90
12315;DHT22;23886;46.614;14.276;2023-04-25T00:41:33;7.10;99.90
12315;DHT22;23886;46.614;14.276;2023-04-25T00:44:01;7.20;99.90
12315;DHT22;23886;46.614;14.276;2023-04-25T00:46:29;7.30;99.90
12315;DHT22;23886;46.614;14.276;2023-04-25T00:48:56;7.40;99.90
12315;DHT22;23886;46.614;14.276;2023-04-25T00:51:23;7.40;99.90
12315;DHT22;23886;46.614;14.276;2023-04-25T00:53:52;7.30;99.90
12315;DHT22;23886;46.614;14.276;2023-04-25T00:56:21;7.50;99.90
12315;DHT22;23886;46.614;14.276;2023-04-25T00:58:48;7.50;99.90
12315;DHT22;23886;46.614;14.276;2023-04-25T01:01:16;7.40;99.90
12315;DHT22;23886;46.614;14.276;2023-04-25T01:03:45;7.30;99.90
12315;DHT22;23886;46.614;14.276;2023-04-25T01:06:13;7.30;99.90
12315;DHT22;23886;46.614;14.276;2023-04-25T01:08:40;7.40;99.90
12315;DHT22;23886;46.614;14.276;2023-04-25T01:11:07;7.30;99.90
12315;DHT22;23886;46.614;14.276;2023-04-25T01:13:35;7.10;99.90
12315;DHT22;23886;46.614;14.276;2023-04-25T01:16:04;7.10;99.90
12315;DHT22;23886;46.614;14.276;2023-04-25T01:18:31;7.00;99.90
12315;DHT22;23886;46.614;14.276;2023-04-25T01:21:07;6.90;99.90
12315;DHT22;23886;46.614;14.276;2023-04-25T01:23:35;6.90;99.90
12315;DHT22;23886;46.614;14.276;2023-04-25T01:26:03;6.80;99.90
12315;DHT22;23886;46.614;14.276;2023-04-25T01:28:30;6.80;99.90
12315;DHT22;23886;46.614;14.276;2023-04-25T01:30:58;6.80;99.90
12315;DHT22;23886;46.614;14.276;2023-04-25T01:33:25;6.70;99.90
12315;DHT22;23886;46.614;14.276;2023-04-25T01:35:52;6.80;99.90
12315;DHT22;23886;46.614;14.276;2023-04-25T01:38:21;6.80;99.90
12315;DHT22;23886;46.614;14.276;2023-04-25T01:40:49;6.80;99.90
12315;DHT22;23886;46.614;14.276;2023-04-25T01:43:17;6.80;99.90
12315;DHT22;23886;46.614;14.276;2023-04-25T01:45:44;6.80;99.90
12315;DHT22;23886;46.614;14.276;2023-04-25T01:48:12;6.70;99.90
12315;DHT22;23886;46.614;14.276;2023-04-25T01:50:40;6.70;99.90
12315;DHT22;23886;46.614;14.276;2023-04-25T01:53:09;6.70;99.90
12315;DHT22;23886;46.614;14.276;2023-04-25T01:55:37;6.70;99.90
12315;DHT22;23886;46.614;14.276;2023-04-25T01:58:05;6.80;99.90
12315;DHT22;23886;46.614;14.276;2023-04-25T02:00:35;6.80;99.90
12315;DHT22;23886;46.614;14.276;2023-04-25T02:03:03;6.90;99.90
12315;DHT22;23886;46.614;14.276;2023-04-25T02:05:34;6.90;99.90
12315;DHT22;23886;46.614;14.276;2023-04-25T02:08:02;6.90;99.90
12315;DHT22;23886;46.614;14.276;2023-04-25T02:10:29;6.90;99.90
12315;DHT22;23886;46.614;14.276;2023-04-25T02:12:58;6.90;99.90
12315;DHT22;23886;46.614;14.276;2023-04-25T02:15:25;6.90;99.90
12315;DHT22;23886;46.614;14.276;2023-04-25T02:17:52;6.90;99.90
12315;DHT22;23886;46.614;14.276;2023-04-25T02:20:21;6.90;99.90
12315;DHT22;23886;46.614;14.276;2023-04-25T02:22:48;6.80;99.90
12315;DHT22;23886;46.614;14.276;2023-04-25T02:25:15;6.70;99.90
12315;DHT22;23886;46.614;14.276;2023-04-25T02:27:42;6.80;99.90
12315;DHT22;23886;46.614;14.276;2023-04-25T02:30:12;6.80;99.90
12315;DHT22;23886;46.614;14.276;2023-04-25T02:32:39;6.70;99.90
12315;DHT22;23886;46.614;14.276;2023-04-25T02:35:07;6.70;99.90
12315;DHT22;23886;46.614;14.276;2023-04-25T02:37:36;6.60;99.90
12315;DHT22;23886;46.614;14.276;2023-04-25T02:40:04;6.60;99.90
12315;DHT22;23886;46.614;14.276;2023-04-25T02:42:31;6.50;99.90
12315;DHT22;23886;46.614;14.276;2023-04-25T02:44:58;6.50;99.90
12315;DHT22;23886;46.614;14.276;2023-04-25T02:47:27;6.50;99.90
12315;DHT22;23886;46.614;14.276;2023-04-25T02:49:54;6.50;99.90
12315;DHT22;23886;46.614;14.276;2023-04-25T02:52:21;6.60;99.90
12315;DHT22;23886;46.614;14.276;2023-04-25T02:54:48;6.60;99.90
12315;DHT22;23886;46.614;14.276;2023-04-25T02:57:15;6.50;99.90
12315;DHT22;23886;46.614;14.276;2023-04-25T02:59:42;6.60;99.90
12315;DHT22;23886;46.614;14.276;2023-04-25T03:02:09;6.50;99.90
12315;DHT22;23886;46.614;14.276;2023-04-25T03:04:38;6.50;99.90
12315;DHT22;23886;46.614;14.276;2023-04-25T03:07:05;6.50;99.90
12315;DHT22;23886;46.614;14.276;2023-04-25T03:09:32;6.50;99.90
12315;DHT22;23886;46.614;14.276;2023-04-25T03:11:59;6.50;99.90
12315;DHT22;23886;46.614;14.276;2023-04-25T03:14:27;6.60;99.90
12315;DHT22;23886;46.614;14.276;2023-04-25T03:16:54;6.70;99.90
12315;DHT22;23886;46.614;14.276;2023-04-25T03:19:20;6.60;99.90
12315;DHT22;23886;46.614;14.276;2023-04-25T03:21:49;6.50;99.90
12315;DHT22;23886;46.614;14.276;2023-04-25T03:24:16;6.60;99.90
12315;DHT22;23886;46.614;14.276;2023-04-25T03:26:43;6.80;99.90
12315;DHT22;23886;46.614;14.276;2023-04-25T03:29:10;6.90;99.90
12315;DHT22;23886;46.614;14.276;2023-04-25T03:31:37;6.80;99.90
12315;DHT22;23886;46.614;14.276;2023-04-25T03:34:04;6.50;99.90
12315;DHT22;23886;46.614;14.276;2023-04-25T03:36:31;6.60;99.90
12315;DHT22;23886;46.614;14.276;2023-04-25T03:38:59;6.50;99.90
12315;DHT22;23886;46.614;14.276;2023-04-25T03:41:26;6.40;99.90
12315;DHT22;23886;46.614;14.276;2023-04-25T03:43:53;6.60;99.90
12315;DHT22;23886;46.614;14.276;2023-04-25T03:46:20;6.60;99.90
12315;DHT22;23886;46.614;14.276;2023-04-25T03:48:47;6.70;99.90
12315;DHT22;23886;46.614;14.276;2023-04-25T03:51:14;6.70;99.90
12315;DHT22;23886;46.614;14.276;2023-04-25T03:53:41;6.80;99.90
12315;DHT22;23886;46.614;14.276;2023-04-25T03:56:09;6.80;99.90
12315;DHT22;23886;46.614;14.276;2023-04-25T03:58:36;6.80;99.90
12315;DHT22;23886;46.614;14.276;2023-04-25T04:01:03;6.90;99.90
12315;DHT22;23886;46.614;14.276;2023-04-25T04:03:33;6.80;99.90
12315;DHT22;23886;46.614;14.276;2023-04-25T04:06:00;6.60;99.90
12315;DHT22;23886;46.614;14.276;2023-04-25T04:08:28;6.50;99.90
12315;DHT22;23886;46.614;14.276;2023-04-25T04:10:55;6.40;99.90
12315;DHT22;23886;46.614;14.276;2023-04-25T04:13:23;6.30;99.90
12315;DHT22;23886;46.614;14.276;2023-04-25T04:15:50;6.30;99.90
12315;DHT22;23886;46.614;14.276;2023-04-25T04:18:17;6.40;99.90
12315;DHT22;23886;46.614;14.276;2023-04-25T04:20:44;6.60;99.90
12315;DHT22;23886;46.614;14.276;2023-04-25T04:23:11;6.70;99.90
12315;DHT22;23886;46.614;14.276;2023-04-25T04:25:39;6.70;99.90
12315;DHT22;23886;46.614;14.276;2023-04-25T04:28:07;6.60;99.90
12315;DHT22;23886;46.614;14.276;2023-04-25T04:30:35;6.50;99.90
12315;DHT22;23886;46.614;14.276;2023-04-25T04:33:03;6.70;99.90
12315;DHT22;23886;46.614;14.276;2023-04-25T04:35:30;6.80;99.90
12315;DHT22;23886;46.614;14.276;2023-04-25T04:37:57;6.70;99.90
12315;DHT22;23886;46.614;14.276;2023-04-25T04:40:24;6.60;99.90
12315;DHT22;23886;46.614;14.276;2023-04-25T04:42:51;6.60;99.90
12315;DHT22;23886;46.614;14.276;2023-04-25T04:45:18;6.50;99.90
12315;DHT22;23886;46.614;14.276;2023-04-25T04:47:47;6.40;99.90
12315;DHT22;23886;46.614;14.276;2023-04-25T04:50:15;6.40;99.90
12315;DHT22;23886;46.614;14.276;2023-04-25T04:52:42;6.40;99.90
12315;DHT22;23886;46.614;14.276;2023-04-25T04:55:09;6.70;99.90
12315;DHT22;23886;46.614;14.276;2023-04-25T04:57:36;6.70;99.90
12315;DHT22;23886;46.614;14.276;2023-04-25T05:00:05;6.60;99.90
12315;DHT22;23886;46.614;14.276;2023-04-25T05:02:36;6.60;99.90
12315;DHT22;23886;46.614;14.276;2023-04-25T05:05:05;6.70;99.90
12315;DHT22;23886;46.614;14.276;2023-04-25T05:07:33;6.80;99.90
12315;DHT22;23886;46.614;14.276;2023-04-25T05:10:00;6.60;99.90
12315;DHT22;23886;46.614;14.276;2023-04-25T05:12:27;6.80;99.90
12315;DHT22;23886;46.614;14.276;2023-04-25T05:14:54;6.80;99.90
12315;DHT22;23886;46.614;14.276;2023-04-25T05:17:21;6.70;99.90
12315;DHT22;23886;46.614;14.276;2023-04-25T05:19:47;6.70;99.90
12315;DHT22;23886;46.614;14.276;2023-04-25T05:22:16;6.70;99.90
12315;DHT22;23886;46.614;14.276;2023-04-25T05:24:43;6.60;99.90
12315;DHT22;23886;46.614;14.276;2023-04-25T05:27:10;6.50;99.90
12315;DHT22;23886;46.614;14.276;2023-04-25T05:29:37;6.60;99.90
12315;DHT22;23886;46.614;14.276;2023-04-25T05:32:05;6.50;99.90
12315;DHT22;23886;46.614;14.276;2023-04-25T05:34:33;6.60;99.90
12315;DHT22;23886;46.614;14.276;2023-04-25T05:37:00;6.70;99.90
12315;DHT22;23886;46.614;14.276;2023-04-25T05:39:28;6.70;99.90
12315;DHT22;23886;46.614;14.276;2023-04-25T05:41:55;6.90;99.90
12315;DHT22;23886;46.614;14.276;2023-04-25T05:44:22;6.90;99.90
12315;DHT22;23886;46.614;14.276;2023-04-25T05:46:49;6.90;99.90
12315;DHT22;23886;46.614;14.276;2023-04-25T05:49:16;6.90;99.90
12315;DHT22;23886;46.614;14.276;2023-04-25T05:51:43;7.10;99.90
12315;DHT22;23886;46.614;14.276;2023-04-25T05:54:10;7.10;99.90
12315;DHT22;23886;46.614;14.276;2023-04-25T05:56:38;7.20;99.90
12315;DHT22;23886;46.614;14.276;2023-04-25T05:59:05;7.30;99.90
12315;DHT22;23886;46.614;14.276;2023-04-25T06:01:32;7.10;99.90
12315;DHT22;23886;46.614;14.276;2023-04-25T06:03:59;7.00;99.90
12315;DHT22;23886;46.614;14.276;2023-04-25T06:06:27;6.90;99.90
12315;DHT22;23886;46.614;14.276;2023-04-25T06:08:54;7.30;99.90
12315;DHT22;23886;46.614;14.276;2023-04-25T06:11:21;7.10;99.90
12315;DHT22;23886;46.614;14.276;2023-04-25T06:13:49;7.10;99.90
12315;DHT22;23886;46.614;14.276;2023-04-25T06:16:16;7.10;99.90
12315;DHT22;23886;46.614;14.276;2023-04-25T06:18:43;7.00;99.90
12315;DHT22;23886;46.614;14.276;2023-04-25T06:21:10;7.00;99.90
12315;DHT22;23886;46.614;14.276;2023-04-25T06:23:37;7.20;99.90
12315;DHT22;23886;46.614;14.276;2023-04-25T06:26:04;7.30;99.90
12315;DHT22;23886;46.614;14.276;2023-04-25T06:28:31;7.20;99.90
12315;DHT22;23886;46.614;14.276;2023-04-25T06:30:59;7.20;99.90
12315;DHT22;23886;46.614;14.276;2023-04-25T06:33:26;7.10;99.90
12315;DHT22;23886;46.614;14.276;2023-04-25T06:35:54;7.10;99.90
12315;DHT22;23886;46.614;14.276;2023-04-25T06:38:21;7.20;99.90
12315;DHT22;23886;46.614;14.276;2023-04-25T06:40:48;7.10;99.90
12315;DHT22;23886;46.614;14.276;2023-04-25T06:43:15;7.20;99.90
12315;DHT22;23886;46.614;14.276;2023-04-25T06:45:42;7.30;99.90
12315;DHT22;23886;46.614;14.276;2023-04-25T06:48:15;7.30;99.90
12315;DHT22;23886;46.614;14.276;2023-04-25T06:50:42;7.50;99.90
12315;DHT22;23886;46.614;14.276;2023-04-25T06:53:09;7.60;99.90
12315;DHT22;23886;46.614;14.276;2023-04-25T06:55:37;8.00;99.90
12315;DHT22;23886;46.614;14.276;2023-04-25T06:58:04;8.10;99.90
12315;DHT22;23886;46.614;14.276;2023-04-25T07:00:31;8.00;99.90
12315;DHT22;23886;46.614;14.276;2023-04-25T07:02:59;8.20;99.90
12315;DHT22;23886;46.614;14.276;2023-04-25T07:05:27;8.50;99.90
12315;DHT22;23886;46.614;14.276;2023-04-25T07:07:54;8.20;99.90
12315;DHT22;23886;46.614;14.276;2023-04-25T07:10:21;8.60;99.90
12315;DHT22;23886;46.614;14.276;2023-04-25T07:12:48;8.40;99.90
12315;DHT22;23886;46.614;14.276;2023-04-25T07:15:15;8.50;99.90
12315;DHT22;23886;46.614;14.276;2023-04-25T07:17:42;8.50;99.90
12315;DHT22;23886;46.614;14.276;2023-04-25T07:20:10;8.30;99.90
12315;DHT22;23886;46.614;14.276;2023-04-25T07:22:38;8.80;99.90
12315;DHT22;23886;46.614;14.276;2023-04-25T07:25:06;9.00;99.90
12315;DHT22;23886;46.614;14.276;2023-04-25T07:27:34;8.80;99.90
12315;DHT22;23886;46.614;14.276;2023-04-25T07:30:01;8.50;99.90
12315;DHT22;23886;46.614;14.276;2023-04-25T07:32:29;8.30;99.90
12315;DHT22;23886;46.614;14.276;2023-04-25T07:34:56;8.20;99.90
12315;DHT22;23886;46.614;14.276;2023-04-25T07:37:23;8.00;99.90
12315;DHT22;23886;46.614;14.276;2023-04-25T07:39:52;8.20;99.90
12315;DHT22;23886;46.614;14.276;2023-04-25T07:42:19;8.70;99.90
12315;DHT22;23886;46.614;14.276;2023-04-25T07:44:46;9.40;99.90
12315;DHT22;23886;46.614;14.276;2023-04-25T07:47:14;9.80;99.90
12315;DHT22;23886;46.614;14.276;2023-04-25T07:49:41;10.10;99.90
12315;DHT22;23886;46.614;14.276;2023-04-25T07:52:08;9.90;99.90
12315;DHT22;23886;46.614;14.276;2023-04-25T07:54:35;9.40;99.90
12315;DHT22;23886;46.614;14.276;2023-04-25T07:57:03;9.20;99.90
12315;DHT22;23886;46.614;14.276;2023-04-25T07:59:32;8.80;99.90
12315;DHT22;23886;46.614;14.276;2023-04-25T08:01:59;9.00;99.90
12315;DHT22;23886;46.614;14.276;2023-04-25T08:04:26;8.80;99.90
12315;DHT22;23886;46.614;14.276;2023-04-25T08:06:54;9.50;99.90
12315;DHT22;23886;46.614;14.276;2023-04-25T08:09:21;10.20;99.90
12315;DHT22;23886;46.614;14.276;2023-04-25T08:11:48;10.70;99.90
12315;DHT22;23886;46.614;14.276;2023-04-25T08:14:16;11.00;99.90
12315;DHT22;23886;46.614;14.276;2023-04-25T08:16:43;10.40;99.90
12315;DHT22;23886;46.614;14.276;2023-04-25T08:19:10;10.90;99.90
12315;DHT22;23886;46.614;14.276;2023-04-25T08:21:37;10.30;99.90
12315;DHT22;23886;46.614;14.276;2023-04-25T08:24:04;9.90;99.90
12315;DHT22;23886;46.614;14.276;2023-04-25T08:26:31;10.10;99.90
12315;DHT22;23886;46.614;14.276;2023-04-25T08:29:00;9.80;99.90
12315;DHT22;23886;46.614;14.276;2023-04-25T08:31:28;9.30;99.90
12315;DHT22;23886;46.614;14.276;2023-04-25T08:33:55;9.20;99.90
12315;DHT22;23886;46.614;14.276;2023-04-25T08:36:22;9.30;99.90
12315;DHT22;23886;46.614;14.276;2023-04-25T08:38:49;9.90;99.90
12315;DHT22;23886;46.614;14.276;2023-04-25T08:41:16;10.10;99.90
12315;DHT22;23886;46.614;14.276;2023-04-25T08:43:44;9.90;99.90
12315;DHT22;23886;46.614;14.276;2023-04-25T08:46:16;9.80;99.90
12315;DHT22;23886;46.614;14.276;2023-04-25T08:48:46;9.50;99.90
12315;DHT22;23886;46.614;14.276;2023-04-25T08:51:20;10.00;99.90
12315;DHT22;23886;46.614;14.276;2023-04-25T08:53:49;10.50;99.90
12315;DHT22;23886;46.614;14.276;2023-04-25T08:56:18;10.00;99.90
12315;DHT22;23886;46.614;14.276;2023-04-25T08:58:48;10.50;99.90
12315;DHT22;23886;46.614;14.276;2023-04-25T09:01:16;10.30;99.90
12315;DHT22;23886;46.614;14.276;2023-04-25T09:03:45;10.70;99.90
12315;DHT22;23886;46.614;14.276;2023-04-25T09:06:13;11.10;99.90
12315;DHT22;23886;46.614;14.276;2023-04-25T09:08:41;10.70;99.90
12315;DHT22;23886;46.614;14.276;2023-04-25T09:11:08;11.00;99.90
12315;DHT22;23886;46.614;14.276;2023-04-25T09:13:35;10.80;99.90
12315;DHT22;23886;46.614;14.276;2023-04-25T09:16:02;10.70;99.90
12315;DHT22;23886;46.614;14.276;2023-04-25T09:18:30;10.50;99.90
12315;DHT22;23886;46.614;14.276;2023-04-25T09:21:05;10.30;99.90
12315;DHT22;23886;46.614;14.276;2023-04-25T09:23:39;10.70;99.90
12315;DHT22;23886;46.614;14.276;2023-04-25T09:26:07;10.90;99.90
12315;DHT22;23886;46.614;14.276;2023-04-25T09:28:34;10.60;99.90
12315;DHT22;23886;46.614;14.276;2023-04-25T09:31:03;10.50;99.90
12315;DHT22;23886;46.614;14.276;2023-04-25T09:33:32;11.00;99.90
12315;DHT22;23886;46.614;14.276;2023-04-25T09:36:06;11.00;99.90
12315;DHT22;23886;46.614;14.276;2023-04-25T09:38:41;10.90;99.90
12315;DHT22;23886;46.614;14.276;2023-04-25T09:41:09;11.00;99.90
12315;DHT22;23886;46.614;14.276;2023-04-25T09:43:37;11.10;99.90
12315;DHT22;23886;46.614;14.276;2023-04-25T09:46:08;11.60;99.90
12315;DHT22;23886;46.614;14.276;2023-04-25T09:48:36;11.50;99.90
12315;DHT22;23886;46.614;14.276;2023-04-25T09:51:06;11.20;99.90
12315;DHT22;23886;46.614;14.276;2023-04-25T09:53:34;11.20;99.90
12315;DHT22;23886;46.614;14.276;2023-04-25T09:56:04;10.90;99.90
12315;DHT22;23886;46.614;14.276;2023-04-25T09:58:32;11.10;99.90
12315;DHT22;23886;46.614;14.276;2023-04-25T10:01:01;10.90;99.90
12315;DHT22;23886;46.614;14.276;2023-04-25T10:03:31;11.80;99.90
12315;DHT22;23886;46.614;14.276;2023-04-25T10:06:00;12.50;99.90
12315;DHT22;23886;46.614;14.276;2023-04-25T10:08:32;12.50;99.90
12315;DHT22;23886;46.614;14.276;2023-04-25T10:11:01;12.00;99.90
12315;DHT22;23886;46.614;14.276;2023-04-25T10:13:29;12.30;99.90
12315;DHT22;23886;46.614;14.276;2023-04-25T10:15:57;12.60;99.90
12315;DHT22;23886;46.614;14.276;2023-04-25T10:18:25;12.20;99.90
12315;DHT22;23886;46.614;14.276;2023-04-25T10:20:54;12.20;99.90
12315;DHT22;23886;46.614;14.276;2023-04-25T10:23:22;12.60;99.90
12315;DHT22;23886;46.614;14.276;2023-04-25T10:25:52;13.80;99.90
12315;DHT22;23886;46.614;14.276;2023-04-25T10:28:19;14.50;99.90
12315;DHT22;23886;46.614;14.276;2023-04-25T10:31:00;13.80;99.90
12315;DHT22;23886;46.614;14.276;2023-04-25T10:33:33;13.30;99.90
12315;DHT22;23886;46.614;14.276;2023-04-25T10:36:09;13.40;99.90
12315;DHT22;23886;46.614;14.276;2023-04-25T10:38:36;13.60;99.90
12315;DHT22;23886;46.614;14.276;2023-04-25T10:41:05;13.20;99.90
12315;DHT22;23886;46.614;14.276;2023-04-25T10:43:38;13.60;99.90
12315;DHT22;23886;46.614;14.276;2023-04-25T10:46:16;13.30;99.90
12315;DHT22;23886;46.614;14.276;2023-04-25T10:48:48;13.40;99.90
12315;DHT22;23886;46.614;14.276;2023-04-25T10:51:20;13.90;99.90
12315;DHT22;23886;46.614;14.276;2023-04-25T10:53:56;13.60;99.90
12315;DHT22;23886;46.614;14.276;2023-04-25T10:56:26;13.50;99.90
12315;DHT22;23886;46.614;14.276;2023-04-25T10:59:04;13.50;99.90
12315;DHT22;23886;46.614;14.276;2023-04-25T11:01:36;13.80;99.90
12315;DHT22;23886;46.614;14.276;2023-04-25T11:04:03;14.10;99.90
12315;DHT22;23886;46.614;14.276;2023-04-25T11:06:37;14.50;99.90
12315;DHT22;23886;46.614;14.276;2023-04-25T11:09:11;14.30;99.90
12315;DHT22;23886;46.614;14.276;2023-04-25T11:11:41;14.60;99.90
12315;DHT22;23886;46.614;14.276;2023-04-25T11:14:08;15.50;99.90
12315;DHT22;23886;46.614;14.276;2023-04-25T11:16:35;16.20;99.90
12315;DHT22;23886;46.614;14.276;2023-04-25T11:19:02;15.70;99.80
12315;DHT22;23886;46.614;14.276;2023-04-25T11:21:30;16.30;98.80
12315;DHT22;23886;46.614;14.276;2023-04-25T11:23:59;15.80;99.40
12315;DHT22;23886;46.614;14.276;2023-04-25T11:26:26;16.10;98.30
12315;DHT22;23886;46.614;14.276;2023-04-25T11:28:58;16.20;97.20
12315;DHT22;23886;46.614;14.276;2023-04-25T11:31:26;16.40;97.60
12315;DHT22;23886;46.614;14.276;2023-04-25T11:33:53;16.90;95.70
12315;DHT22;23886;46.614;14.276;2023-04-25T11:36:22;16.30;96.90
12315;DHT22;23886;46.614;14.276;2023-04-25T11:38:50;15.50;96.60
12315;DHT22;23886;46.614;14.276;2023-04-25T11:41:17;15.80;98.50
12315;DHT22;23886;46.614;14.276;2023-04-25T11:43:44;16.10;97.30
12315;DHT22;23886;46.614;14.276;2023-04-25T11:46:12;16.40;96.70
12315;DHT22;23886;46.614;14.276;2023-04-25T11:48:40;17.00;94.40
12315;DHT22;23886;46.614;14.276;2023-04-25T11:51:08;17.20;93.30
12315;DHT22;23886;46.614;14.276;2023-04-25T11:53:35;16.30;93.40
12315;DHT22;23886;46.614;14.276;2023-04-25T11:56:09;16.50;93.10
12315;DHT22;23886;46.614;14.276;2023-04-25T11:58:54;16.50;92.50
12315;DHT22;23886;46.614;14.276;2023-04-25T12:01:27;16.50;93.50
12315;DHT22;23886;46.614;14.276;2023-04-25T12:03:54;16.80;91.70
12315;DHT22;23886;46.614;14.276;2023-04-25T12:06:25;16.90;90.50
12315;DHT22;23886;46.614;14.276;2023-04-25T12:09:02;17.20;91.90
12315;DHT22;23886;46.614;14.276;2023-04-25T12:11:30;17.60;91.00
12315;DHT22;23886;46.614;14.276;2023-04-25T12:14:02;17.20;90.70
12315;DHT22;23886;46.614;14.276;2023-04-25T12:16:40;16.90;91.20
12315;DHT22;23886;46.614;14.276;2023-04-25T12:19:08;17.00;91.20
12315;DHT22;23886;46.614;14.276;2023-04-25T12:21:35;16.90;90.70
12315;DHT22;23886;46.614;14.276;2023-04-25T12:24:13;16.80;90.80
12315;DHT22;23886;46.614;14.276;2023-04-25T12:26:50;17.10;88.70
12315;DHT22;23886;46.614;14.276;2023-04-25T12:29:22;17.00;86.70
12315;DHT22;23886;46.614;14.276;2023-04-25T12:31:51;16.80;88.20
12315;DHT22;23886;46.614;14.276;2023-04-25T12:34:19;16.40;90.30
12315;DHT22;23886;46.614;14.276;2023-04-25T12:36:47;16.90;89.00
12315;DHT22;23886;46.614;14.276;2023-04-25T12:39:18;16.40;87.60
12315;DHT22;23886;46.614;14.276;2023-04-25T12:41:45;16.70;85.70
12315;DHT22;23886;46.614;14.276;2023-04-25T12:44:13;16.60;85.90
12315;DHT22;23886;46.614;14.276;2023-04-25T12:46:41;16.60;86.10
12315;DHT22;23886;46.614;14.276;2023-04-25T12:49:09;16.10;87.90
12315;DHT22;23886;46.614;14.276;2023-04-25T12:51:37;15.90;86.00
12315;DHT22;23886;46.614;14.276;2023-04-25T12:54:05;15.90;88.20
12315;DHT22;23886;46.614;14.276;2023-04-25T12:56:33;16.00;87.90
12315;DHT22;23886;46.614;14.276;2023-04-25T12:59:00;16.20;88.60
12315;DHT22;23886;46.614;14.276;2023-04-25T13:01:29;16.20;84.10
12315;DHT22;23886;46.614;14.276;2023-04-25T13:03:56;16.30;82.50
12315;DHT22;23886;46.614;14.276;2023-04-25T13:06:24;16.10;85.40
12315;DHT22;23886;46.614;14.276;2023-04-25T13:08:51;15.90;88.10
12315;DHT22;23886;46.614;14.276;2023-04-25T13:11:18;15.80;78.90
12315;DHT22;23886;46.614;14.276;2023-04-25T13:13:45;15.80;77.00
12315;DHT22;23886;46.614;14.276;2023-04-25T13:16:12;15.70;78.30
12315;DHT22;23886;46.614;14.276;2023-04-25T13:18:41;15.80;78.60
12315;DHT22;23886;46.614;14.276;2023-04-25T13:21:09;15.40;77.10
12315;DHT22;23886;46.614;14.276;2023-04-25T13:23:38;15.70;76.80
12315;DHT22;23886;46.614;14.276;2023-04-25T13:26:05;16.00;77.40
12315;DHT22;23886;46.614;14.276;2023-04-25T13:28:31;15.40;79.50
12315;DHT22;23886;46.614;14.276;2023-04-25T13:30:58;15.00;84.00
12315;DHT22;23886;46.614;14.276;2023-04-25T13:33:26;15.30;84.90
12315;DHT22;23886;46.614;14.276;2023-04-25T13:35:53;15.20;84.50
12315;DHT22;23886;46.614;14.276;2023-04-25T13:38:22;14.50;84.90
12315;DHT22;23886;46.614;14.276;2023-04-25T13:40:50;14.70;86.20
12315;DHT22;23886;46.614;14.276;2023-04-25T13:43:19;14.60;88.30
12315;DHT22;23886;46.614;14.276;2023-04-25T13:45:47;14.70;87.80
12315;DHT22;23886;46.614;14.276;2023-04-25T13:48:14;14.60;86.50
12315;DHT22;23886;46.614;14.276;2023-04-25T13:50:41;14.80;87.00
12315;DHT22;23886;46.614;14.276;2023-04-25T13:53:08;14.90;87.00
12315;DHT22;23886;46.614;14.276;2023-04-25T13:55:35;14.90;87.50
12315;DHT22;23886;46.614;14.276;2023-04-25T13:58:04;14.90;87.60
12315;DHT22;23886;46.614;14.276;2023-04-25T14:00:34;14.60;88.80
12315;DHT22;23886;46.614;14.276;2023-04-25T14:03:03;14.30;89.80
12315;DHT22;23886;46.614;14.276;2023-04-25T14:05:33;14.40;89.70
12315;DHT22;23886;46.614;14.276;2023-04-25T14:08:04;14.60;89.70
12315;DHT22;23886;46.614;14.276;2023-04-25T14:10:31;14.60;87.50
12315;DHT22;23886;46.614;14.276;2023-04-25T14:12:58;14.10;89.30
12315;DHT22;23886;46.614;14.276;2023-04-25T14:15:27;14.20;90.60
12315;DHT22;23886;46.614;14.276;2023-04-25T14:17:54;14.10;89.80
12315;DHT22;23886;46.614;14.276;2023-04-25T14:20:21;13.60;91.20
12315;DHT22;23886;46.614;14.276;2023-04-25T14:22:49;14.20;91.40
12315;DHT22;23886;46.614;14.276;2023-04-25T14:25:17;14.60;90.90
12315;DHT22;23886;46.614;14.276;2023-04-25T14:27:44;14.30;89.70
12315;DHT22;23886;46.614;14.276;2023-04-25T14:30:15;14.80;90.10
12315;DHT22;23886;46.614;14.276;2023-04-25T14:32:43;14.90;90.70
12315;DHT22;23886;46.614;14.276;2023-04-25T14:35:11;14.90;90.40
12315;DHT22;23886;46.614;14.276;2023-04-25T14:37:38;15.00;90.50
12315;DHT22;23886;46.614;14.276;2023-04-25T14:40:06;15.10;90.50
12315;DHT22;23886;46.614;14.276;2023-04-25T14:42:34;15.20;90.80
12315;DHT22;23886;46.614;14.276;2023-04-25T14:45:02;15.30;89.80
12315;DHT22;23886;46.614;14.276;2023-04-25T14:47:29;15.50;88.80
12315;DHT22;23886;46.614;14.276;2023-04-25T14:49:57;15.60;89.40
12315;DHT22;23886;46.614;14.276;2023-04-25T14:52:24;15.80;88.00
12315;DHT22;23886;46.614;14.276;2023-04-25T14:54:51;16.00;87.20
12315;DHT22;23886;46.614;14.276;2023-04-25T14:57:18;16.20;85.70
12315;DHT22;23886;46.614;14.276;2023-04-25T14:59:45;16.60;84.50
12315;DHT22;23886;46.614;14.276;2023-04-25T15:02:12;17.10;84.80
12315;DHT22;23886;46.614;14.276;2023-04-25T15:04:39;17.80;85.90
12315;DHT22;23886;46.614;14.276;2023-04-25T15:07:08;18.90;83.40
12315;DHT22;23886;46.614;14.276;2023-04-25T15:09:35;20.20;80.90
12315;DHT22;23886;46.614;14.276;2023-04-25T15:12:02;19.60;80.30
12315;DHT22;23886;46.614;14.276;2023-04-25T15:14:29;19.30;79.20
12315;DHT22;23886;46.614;14.276;2023-04-25T15:16:56;20.30;79.20
12315;DHT22;23886;46.614;14.276;2023-04-25T15:19:23;21.20;75.70
12315;DHT22;23886;46.614;14.276;2023-04-25T15:21:50;21.50;75.40
12315;DHT22;23886;46.614;14.276;2023-04-25T15:24:19;22.30;72.90
12315;DHT22;23886;46.614;14.276;2023-04-25T15:26:47;22.40;71.30
12315;DHT22;23886;46.614;14.276;2023-04-25T15:29:14;21.20;73.20
12315;DHT22;23886;46.614;14.276;2023-04-25T15:31:41;22.20;71.00